createdAt,value
2022-08-14T00:02:25.231Z,20.67
2022-08-14T00:04:55.339Z,20.71
2022-08-14T00:07:22.976Z,20.76
2022-08-14T00:10:01.390Z,20.77
2022-08-14T00:12:42.970Z,20.78
2022-08-14T00:15:21.856Z,20.76
2022-08-14T00:17:53.067Z,20.70
2022-08-14T00:20:36.016Z,20.70
2022-08-14T00:23:16.878Z,20.73
2022-08-14T00:25:53.794Z,20.75
2022-08-14T00:28:32.546Z,20.85
2022-08-14T00:31:03.531Z,20.86
2022-08-14T00:33:39.276Z,20.86
2022-08-14T00:36:39.226Z,20.88
2022-08-14T00:39:17.806Z,20.91
2022-08-14T00:41:48.020Z,20.98
2022-08-14T00:44:21.560Z,21.05
2022-08-14T00:46:58.928Z,21.13
2022-08-14T00:49:28.698Z,21.19
2022-08-14T00:51:59.956Z,21.29
2022-08-14T00:54:27.587Z,21.36
2022-08-14T00:56:56.113Z,21.45
2022-08-14T00:59:29.746Z,21.46
2022-08-14T01:02:00.685Z,21.44
2022-08-14T01:04:38.431Z,21.47
2022-08-14T01:07:22.902Z,21.50
2022-08-14T01:09:54.006Z,21.57
2022-08-14T01:12:27.086Z,21.61
2022-08-14T01:15:02.960Z,21.65
2022-08-14T01:17:52.222Z,21.67
2022-08-14T01:20:40.962Z,21.63
2022-08-14T01:23:16.232Z,21.62
2022-08-14T01:25:52.374Z,21.55
2022-08-14T01:28:47.067Z,21.51
2022-08-14T01:31:17.112Z,21.52
2022-08-14T01:35:15.557Z,21.47
2022-08-14T01:36:39.306Z,21.46
2022-08-14T01:39:18.597Z,21.46
2022-08-14T01:41:56.335Z,21.48
2022-08-14T01:44:32.350Z,21.46
2022-08-14T01:47:19.587Z,21.44
2022-08-14T01:49:59.586Z,21.42
2022-08-14T01:52:59.428Z,21.33
2022-08-14T01:55:32.211Z,21.23
2022-08-14T02:00:55.165Z,21.21
2022-08-14T02:03:30.979Z,21.24
2022-08-14T02:06:03.530Z,21.21
2022-08-14T02:08:53.368Z,21.19
2022-08-14T02:11:25.182Z,21.02
2022-08-14T02:14:07.919Z,20.91
2022-08-14T02:16:39.495Z,20.83
2022-08-14T02:19:17.653Z,20.79
2022-08-14T02:21:50.537Z,20.77
2022-08-14T02:24:39.618Z,20.73
2022-08-14T02:28:21.922Z,20.57
2022-08-14T02:30:02.203Z,20.53
2022-08-14T02:32:36.831Z,20.58
2022-08-14T02:35:17.835Z,20.62
2022-08-14T02:37:49.534Z,20.49
2022-08-14T02:40:19.916Z,20.45
2022-08-14T02:42:55.270Z,20.39
2022-08-14T02:45:33.237Z,20.36
2022-08-14T02:48:10.340Z,20.38
2022-08-14T02:50:55.034Z,20.48
2022-08-14T02:53:22.798Z,20.51
2022-08-14T02:55:50.457Z,20.52
2022-08-14T02:58:30.775Z,20.53
2022-08-14T03:01:01.210Z,20.51
2022-08-14T03:03:31.723Z,20.53
2022-08-14T03:06:09.127Z,20.56
2022-08-14T03:08:39.948Z,20.55
2022-08-14T03:11:14.428Z,20.60
2022-08-14T03:13:47.476Z,20.56
2022-08-14T03:16:26.668Z,20.54
2022-08-14T03:18:58.338Z,20.47
2022-08-14T03:21:28.261Z,20.48
2022-08-14T03:24:21.645Z,20.50
2022-08-14T03:26:57.537Z,20.49
2022-08-14T03:29:27.677Z,20.40
2022-08-14T03:31:57.125Z,20.39
2022-08-14T03:34:47.948Z,20.43
2022-08-14T03:37:52.101Z,20.39
2022-08-14T03:40:02.895Z,20.40
2022-08-14T03:42:35.921Z,20.43
2022-08-14T03:45:27.291Z,20.48
2022-08-14T03:47:58.952Z,20.27
2022-08-14T03:50:31.602Z,20.21
2022-08-14T03:53:02.924Z,20.17
2022-08-14T03:55:31.403Z,20.21
2022-08-14T03:58:00.430Z,20.13
2022-08-14T04:00:43.530Z,20.07
2022-08-14T04:03:19.575Z,20.01
2022-08-14T04:05:51.598Z,19.99
2022-08-14T04:08:29.901Z,20.02
2022-08-14T04:11:00.858Z,20.10
2022-08-14T04:13:34.450Z,20.11
2022-08-14T04:16:10.066Z,20.10
2022-08-14T04:18:46.433Z,20.13
2022-08-14T04:21:16.616Z,20.21
2022-08-14T04:23:49.167Z,20.23
2022-08-14T04:26:42.753Z,20.23
2022-08-14T04:29:15.319Z,20.22
2022-08-14T04:33:01.231Z,20.25
2022-08-14T04:34:35.129Z,20.30
2022-08-14T04:37:25.505Z,20.29
2022-08-14T04:40:13.681Z,20.20
2022-08-14T04:43:01.610Z,20.11
2022-08-14T04:45:36.412Z,20.10
2022-08-14T04:48:39.480Z,20.02
2022-08-14T04:51:07.659Z,20.03
2022-08-14T04:53:40.900Z,19.98
2022-08-14T04:56:31.066Z,20.04
2022-08-14T04:59:10.006Z,20.12
2022-08-14T05:01:45.225Z,20.23
2022-08-14T05:04:21.103Z,20.36
2022-08-14T05:06:55.158Z,20.46
2022-08-14T05:09:24.548Z,20.55
2022-08-14T05:13:13.234Z,20.56
2022-08-14T05:14:55.267Z,20.57
2022-08-14T05:17:34.753Z,20.59
2022-08-14T05:21:54.326Z,20.47
2022-08-14T05:23:01.384Z,20.48
2022-08-14T05:25:31.914Z,20.48
2022-08-14T05:28:23.403Z,20.56
2022-08-14T05:30:57.510Z,20.63
2022-08-14T05:33:28.471Z,20.61
2022-08-14T05:36:01.319Z,20.60
2022-08-14T05:38:39.450Z,20.62
2022-08-14T05:41:12.856Z,20.70
2022-08-14T05:43:42.424Z,20.81
2022-08-14T05:46:18.444Z,20.93
2022-08-14T05:48:57.323Z,20.85
2022-08-14T05:51:26.353Z,20.92
2022-08-14T05:54:00.089Z,20.94
2022-08-14T05:56:29.828Z,20.97
2022-08-14T05:58:57.448Z,20.99
2022-08-14T06:01:31.297Z,21.03
2022-08-14T06:03:59.703Z,20.98
2022-08-14T06:06:27.745Z,20.89
2022-08-14T06:08:55.373Z,20.89
2022-08-14T06:11:23.934Z,20.86
2022-08-14T06:13:58.741Z,20.84
2022-08-14T06:16:26.635Z,20.81
2022-08-14T06:18:54.152Z,20.82
2022-08-14T06:21:27.030Z,20.86
2022-08-14T06:23:55.075Z,20.85
2022-08-14T06:26:22.745Z,20.88
2022-08-14T06:28:58.702Z,20.83
2022-08-14T06:31:29.281Z,20.81
2022-08-14T06:35:03.030Z,20.85
2022-08-14T06:36:46.191Z,20.92
2022-08-14T06:39:13.854Z,20.96
2022-08-14T06:41:58.708Z,21.03
2022-08-14T06:44:32.268Z,21.11
2022-08-14T06:47:03.002Z,21.06
2022-08-14T06:49:43.481Z,21.05
2022-08-14T06:52:15.357Z,21.09
2022-08-14T06:54:45.642Z,21.07
2022-08-14T06:57:13.780Z,21.12
2022-08-14T06:59:42.343Z,21.16
2022-08-14T07:02:29.806Z,21.24
2022-08-14T07:05:22.767Z,21.30
2022-08-14T07:07:51.915Z,21.38
2022-08-14T07:10:22.144Z,21.47
2022-08-14T07:13:01.518Z,21.52
2022-08-14T07:15:39.940Z,21.48
2022-08-14T07:18:12.226Z,21.37
2022-08-14T07:20:42.151Z,21.31
2022-08-14T07:23:19.665Z,21.25
2022-08-14T07:25:51.927Z,21.27
2022-08-14T07:28:26.525Z,21.34
2022-08-14T07:31:04.180Z,21.44
2022-08-14T07:33:41.859Z,21.56
2022-08-14T07:36:26.421Z,21.65
2022-08-14T07:38:56.006Z,21.75
2022-08-14T07:41:23.991Z,21.74
2022-08-14T07:43:55.428Z,21.78
2022-08-14T07:46:28.553Z,21.74
2022-08-14T07:48:59.541Z,21.72
2022-08-14T07:51:33.967Z,21.69
2022-08-14T07:54:11.152Z,21.65
2022-08-14T07:56:47.935Z,21.64
2022-08-14T07:59:18.820Z,21.57
2022-08-14T08:01:48.029Z,21.52
2022-08-14T08:04:29.478Z,21.45
2022-08-14T08:07:03.487Z,21.40
2022-08-14T08:09:36.151Z,21.44
2022-08-14T08:12:09.255Z,21.57
2022-08-14T08:14:55.708Z,21.71
2022-08-14T08:17:25.663Z,21.81
2022-08-14T08:19:53.459Z,21.83
2022-08-14T08:22:22.069Z,21.91
2022-08-14T08:24:50.237Z,22.00
2022-08-14T08:27:22.206Z,22.09
2022-08-14T08:29:51.486Z,22.13
2022-08-14T08:32:19.990Z,22.25
2022-08-14T08:34:49.254Z,22.35
2022-08-14T08:37:17.131Z,22.47
2022-08-14T08:40:01.618Z,22.58
2022-08-14T08:42:38.210Z,22.58
2022-08-14T08:45:11.811Z,22.48
2022-08-14T08:47:40.885Z,22.47
2022-08-14T08:50:31.582Z,22.45
2022-08-14T08:53:07.125Z,22.44
2022-08-14T08:55:43.907Z,22.46
2022-08-14T08:58:16.572Z,22.48
2022-08-14T09:00:54.143Z,22.52
2022-08-14T09:03:28.627Z,22.49
2022-08-14T09:06:03.905Z,22.44
2022-08-14T09:08:36.966Z,22.40
2022-08-14T09:11:19.307Z,22.31
2022-08-14T09:13:54.150Z,22.27
2022-08-14T09:16:26.030Z,22.24
2022-08-14T09:18:55.220Z,22.18
2022-08-14T09:21:24.155Z,22.21
2022-08-14T09:24:28.647Z,22.25
2022-08-14T09:26:49.449Z,22.30
2022-08-14T09:29:20.119Z,22.41
2022-08-14T09:32:03.275Z,22.56
2022-08-14T09:35:08.541Z,22.75
2022-08-14T09:38:15.443Z,22.47
2022-08-14T09:41:27.386Z,22.30
2022-08-14T09:44:20.897Z,22.29
2022-08-14T09:46:58.556Z,22.36
2022-08-14T09:49:40.075Z,22.51
2022-08-14T09:52:32.819Z,22.68
2022-08-14T09:55:02.657Z,22.89
2022-08-14T09:57:31.783Z,23.06
2022-08-14T10:00:30.112Z,23.30
2022-08-14T10:03:05.260Z,23.27
2022-08-14T10:05:39.210Z,23.32
2022-08-14T10:08:26.414Z,23.39
2022-08-14T10:11:01.587Z,23.43
2022-08-14T10:13:52.464Z,23.39
2022-08-14T10:16:21.868Z,23.36
2022-08-14T10:19:10.734Z,23.37
2022-08-14T10:23:11.070Z,23.50
2022-08-14T10:24:40.207Z,23.64
2022-08-14T10:27:26.721Z,23.76
2022-08-14T10:30:01.151Z,23.85
2022-08-14T10:32:41.845Z,23.90
2022-08-14T10:35:14.709Z,23.97
2022-08-14T10:37:51.448Z,23.96
2022-08-14T10:40:43.773Z,23.96
2022-08-14T10:43:22.745Z,24.00
2022-08-14T10:46:03.521Z,24.09
2022-08-14T10:49:00.218Z,24.18
2022-08-14T10:51:34.353Z,24.33
2022-08-14T10:54:26.106Z,24.31
2022-08-14T10:57:18.761Z,24.22
2022-08-14T10:59:51.937Z,24.11
2022-08-14T11:02:50.251Z,24.02
2022-08-14T11:05:27.087Z,24.07
2022-08-14T11:07:56.851Z,24.20
2022-08-14T11:10:46.774Z,24.36
2022-08-14T11:13:30.676Z,24.60
2022-08-14T11:16:01.839Z,24.74
2022-08-14T11:18:37.081Z,24.76
2022-08-14T11:21:09.751Z,24.66
2022-08-14T11:23:43.826Z,24.61
2022-08-14T11:26:19.035Z,24.67
2022-08-14T11:28:49.719Z,24.68
2022-08-14T11:31:23.946Z,24.74
2022-08-14T11:33:59.404Z,24.84
2022-08-14T11:36:35.308Z,25.01
2022-08-14T11:39:34.864Z,25.13
2022-08-14T11:42:55.377Z,25.24
2022-08-14T11:45:04.449Z,25.43
2022-08-14T11:47:43.901Z,25.51
2022-08-14T11:50:36.056Z,25.48
2022-08-14T11:53:07.789Z,25.53
2022-08-14T11:55:39.538Z,25.56
2022-08-14T11:58:11.062Z,25.58
2022-08-14T12:00:57.428Z,25.55
2022-08-14T12:04:07.773Z,25.58
2022-08-14T12:06:52.417Z,25.61
2022-08-14T12:09:38.036Z,25.57
2022-08-14T12:12:35.845Z,25.64
2022-08-14T12:15:06.845Z,25.64
2022-08-14T12:17:50.699Z,25.71
2022-08-14T12:20:30.117Z,25.85
2022-08-14T12:23:08.028Z,25.82
2022-08-14T12:25:36.704Z,25.83
2022-08-14T12:28:26.993Z,25.97
2022-08-14T12:30:59.838Z,26.17
2022-08-14T12:33:34.118Z,26.26
2022-08-14T12:36:10.546Z,26.33
2022-08-14T12:38:44.341Z,26.49
2022-08-14T12:41:21.354Z,26.60
2022-08-14T12:43:56.933Z,26.95
2022-08-14T12:46:33.889Z,27.14
2022-08-14T12:49:11.791Z,27.35
2022-08-14T12:51:59.306Z,27.44
2022-08-14T12:54:29.176Z,27.59
2022-08-14T12:57:14.646Z,27.83
2022-08-14T12:59:47.472Z,28.04
2022-08-14T13:02:26.189Z,28.02
2022-08-14T13:04:58.557Z,28.05
2022-08-14T13:07:32.642Z,28.10
2022-08-14T13:10:45.674Z,28.38
2022-08-14T13:13:12.555Z,28.58
2022-08-14T13:15:43.966Z,28.75
2022-08-14T13:18:15.591Z,28.92
2022-08-14T13:20:51.425Z,29.07
2022-08-14T13:23:31.680Z,29.19
2022-08-14T13:26:01.574Z,29.28
2022-08-14T13:28:34.279Z,29.21
2022-08-14T13:31:11.777Z,29.15
2022-08-14T13:33:41.150Z,29.16
2022-08-14T13:36:24.564Z,29.07
2022-08-14T13:39:00.735Z,29.03
2022-08-14T13:41:34.544Z,29.12
2022-08-14T13:44:04.985Z,29.21
2022-08-14T13:46:36.174Z,29.29
2022-08-14T13:49:10.653Z,29.31
2022-08-14T13:51:53.026Z,29.33
2022-08-14T13:54:22.656Z,29.31
2022-08-14T13:56:51.251Z,29.19
2022-08-14T13:59:20.512Z,29.13
2022-08-14T14:02:08.059Z,29.20
2022-08-14T14:04:46.322Z,29.33
2022-08-14T14:07:21.819Z,29.31
2022-08-14T14:09:55.886Z,29.36
2022-08-14T14:12:36.753Z,29.34
2022-08-14T14:15:18.077Z,29.42
2022-08-14T14:17:51.070Z,29.45
2022-08-14T14:20:35.504Z,29.47
2022-08-14T14:23:11.818Z,29.41
2022-08-14T14:25:51.282Z,29.46
2022-08-14T14:28:31.937Z,29.47
2022-08-14T14:31:06.766Z,29.57
2022-08-14T14:33:52.095Z,29.71
2022-08-14T14:36:24.285Z,29.70
2022-08-14T14:39:01.585Z,29.49
2022-08-14T14:41:38.212Z,29.55
2022-08-14T14:44:09.179Z,29.70
2022-08-14T14:46:42.049Z,29.78
2022-08-14T14:49:14.370Z,29.92
2022-08-14T14:51:51.051Z,29.86
2022-08-14T14:54:31.135Z,29.89
2022-08-14T14:57:04.063Z,30.03
2022-08-14T14:59:38.856Z,30.24
2022-08-14T15:02:09.103Z,30.44
2022-08-14T15:04:43.866Z,30.66
2022-08-14T15:07:12.957Z,30.86
2022-08-14T15:09:41.017Z,31.02
2022-08-14T15:12:34.448Z,31.17
2022-08-14T15:15:08.057Z,31.35
2022-08-14T15:17:41.636Z,31.47
2022-08-14T15:20:17.315Z,31.57
2022-08-14T15:23:00.927Z,31.66
2022-08-14T15:25:36.445Z,31.68
2022-08-14T15:28:06.338Z,31.74
2022-08-14T15:30:33.822Z,31.80
2022-08-14T15:33:01.581Z,31.89
2022-08-14T15:35:34.005Z,31.98
2022-08-14T15:38:17.540Z,31.95
2022-08-14T15:40:51.696Z,31.67
2022-08-14T15:43:27.358Z,31.53
2022-08-14T15:46:00.417Z,31.45
2022-08-14T15:48:30.467Z,31.56
2022-08-14T15:50:59.577Z,31.71
2022-08-14T15:53:31.643Z,31.76
2022-08-14T15:56:20.874Z,31.87
2022-08-14T15:59:10.458Z,31.99
2022-08-14T16:01:54.630Z,32.17
2022-08-14T16:04:23.965Z,32.28
2022-08-14T16:06:54.726Z,32.53
2022-08-14T16:09:24.019Z,32.90
2022-08-14T16:11:53.962Z,33.06
2022-08-14T16:14:22.635Z,33.49
2022-08-14T16:17:00.185Z,34.06
2022-08-14T16:19:43.941Z,34.65
2022-08-14T16:22:58.757Z,35.10
2022-08-14T16:25:05.290Z,35.37
2022-08-14T16:27:41.205Z,35.40
2022-08-14T16:33:06.855Z,34.50
2022-08-14T16:35:42.546Z,34.02
2022-08-14T16:38:46.355Z,33.30
2022-08-14T16:41:17.453Z,32.76
2022-08-14T16:43:46.390Z,32.30
2022-08-14T16:46:22.252Z,31.98
2022-08-14T16:48:57.857Z,31.73
2022-08-14T16:51:34.916Z,31.56
2022-08-14T16:54:20.907Z,31.39
2022-08-14T16:57:14.000Z,31.14
2022-08-14T16:59:52.849Z,30.88
2022-08-14T17:02:43.395Z,30.54
2022-08-14T17:05:18.272Z,30.24
2022-08-14T17:08:32.343Z,29.74
2022-08-14T17:10:52.189Z,29.36
2022-08-14T17:13:58.041Z,28.95
2022-08-14T17:16:24.555Z,28.58
2022-08-14T17:19:00.910Z,28.32
2022-08-14T17:21:40.909Z,28.13
2022-08-14T17:24:57.382Z,27.88
2022-08-14T17:29:56.449Z,27.28
2022-08-14T17:35:57.453Z,26.99
2022-08-14T17:38:39.093Z,26.88
2022-08-14T17:41:27.329Z,26.78
2022-08-14T17:44:12.627Z,26.71
2022-08-14T17:46:50.043Z,26.64
2022-08-14T17:49:27.201Z,26.50
2022-08-14T17:52:07.722Z,26.36
2022-08-14T17:54:52.719Z,26.19
2022-08-14T17:57:28.520Z,26.03
2022-08-14T17:59:59.413Z,25.96
2022-08-14T18:02:30.930Z,25.85
2022-08-14T18:05:03.184Z,25.79
2022-08-14T18:08:00.481Z,25.74
2022-08-14T18:10:56.105Z,25.77
2022-08-14T18:13:10.633Z,25.73
2022-08-14T18:15:43.256Z,25.73
2022-08-14T18:18:19.470Z,25.70
2022-08-14T18:21:40.673Z,25.68
2022-08-14T18:23:42.572Z,25.65
2022-08-14T18:26:36.030Z,25.59
2022-08-14T18:29:00.447Z,25.53
2022-08-14T18:31:42.131Z,25.50
2022-08-14T18:34:31.613Z,25.51
2022-08-14T18:37:17.072Z,25.50
2022-08-14T18:40:01.732Z,25.49
2022-08-14T18:42:32.994Z,25.49
2022-08-14T18:45:15.481Z,25.47
2022-08-14T18:50:46.182Z,25.32
2022-08-14T18:53:15.242Z,25.24
2022-08-14T18:55:53.666Z,25.15
2022-08-14T18:58:45.316Z,25.12
2022-08-14T19:01:25.988Z,25.11
2022-08-14T19:03:54.773Z,25.10
2022-08-14T19:06:40.204Z,25.08
2022-08-14T19:09:28.990Z,25.05
2022-08-14T19:11:57.355Z,25.01
2022-08-14T19:14:47.561Z,24.97
2022-08-14T19:17:43.291Z,24.89
2022-08-14T19:20:58.211Z,24.82
2022-08-14T19:23:43.167Z,24.75
2022-08-14T19:26:34.694Z,24.69
2022-08-14T19:29:37.514Z,24.59
2022-08-14T19:32:36.822Z,24.50
2022-08-14T19:35:48.607Z,24.42
2022-08-14T19:38:45.037Z,24.35
2022-08-14T19:41:25.082Z,24.34
2022-08-14T19:44:15.692Z,24.30
2022-08-14T19:47:01.914Z,24.24
2022-08-14T19:50:09.075Z,24.12
2022-08-14T19:52:38.932Z,24.11
2022-08-14T19:55:19.827Z,24.09
2022-08-14T19:57:57.927Z,24.12
2022-08-14T20:00:29.141Z,24.06
2022-08-14T20:03:10.603Z,24.03
2022-08-14T20:05:45.534Z,23.93
2022-08-14T20:10:58.885Z,23.86
2022-08-14T20:11:20.688Z,23.79
2022-08-14T20:14:20.900Z,23.79
2022-08-14T20:17:01.953Z,23.81
2022-08-14T20:19:37.888Z,23.82
2022-08-14T20:22:37.580Z,23.82
2022-08-14T20:25:23.080Z,23.82
2022-08-14T20:27:59.345Z,23.88
2022-08-14T20:30:34.991Z,23.81
2022-08-14T20:33:11.437Z,23.76
2022-08-14T20:35:39.322Z,23.78
2022-08-14T20:38:29.847Z,23.79
2022-08-14T20:41:10.558Z,23.73
2022-08-14T20:43:59.449Z,23.75
2022-08-14T20:46:38.735Z,23.72
2022-08-14T20:49:19.336Z,23.68
2022-08-14T20:51:58.719Z,23.67
2022-08-14T20:54:34.305Z,23.64
2022-08-14T20:57:14.188Z,23.62
2022-08-14T20:59:46.602Z,23.59
2022-08-14T21:02:34.483Z,23.57
2022-08-14T21:05:16.676Z,23.42
2022-08-14T21:07:51.169Z,23.41
2022-08-14T21:10:33.852Z,23.41
2022-08-14T21:13:26.142Z,23.42
2022-08-14T21:16:34.461Z,23.40
2022-08-14T21:19:04.742Z,23.40
2022-08-14T21:21:41.632Z,23.38
2022-08-14T21:24:38.378Z,23.43
2022-08-14T21:27:12.398Z,23.42
2022-08-14T21:29:53.757Z,23.39
2022-08-14T21:32:47.381Z,23.41
2022-08-14T21:35:24.413Z,23.41
2022-08-14T21:37:53.831Z,23.42
2022-08-14T21:40:40.609Z,23.45
2022-08-14T21:43:20.114Z,23.46
2022-08-14T21:45:53.288Z,23.43
2022-08-14T21:48:32.266Z,23.39
2022-08-14T21:51:54.963Z,23.32
2022-08-14T21:53:59.991Z,23.24
2022-08-14T21:56:38.665Z,23.25
2022-08-14T21:59:22.586Z,23.27
2022-08-14T22:02:00.078Z,23.32
2022-08-14T22:04:40.022Z,23.27
2022-08-14T22:07:17.359Z,23.25
2022-08-14T22:09:55.025Z,23.26
2022-08-14T22:12:57.727Z,23.24
2022-08-14T22:15:16.459Z,23.27
2022-08-14T22:17:44.851Z,23.26
2022-08-14T22:20:20.803Z,23.25
2022-08-14T22:22:48.585Z,23.26
2022-08-14T22:25:32.957Z,23.27
2022-08-14T22:28:09.919Z,23.32
2022-08-14T22:30:39.064Z,23.28
2022-08-14T22:33:10.154Z,23.23
2022-08-14T22:35:42.699Z,23.21
2022-08-14T22:38:37.805Z,23.24
2022-08-14T22:41:25.011Z,23.25
2022-08-14T22:43:51.076Z,23.25
2022-08-14T22:46:20.446Z,23.23
2022-08-14T22:48:49.420Z,23.19
2022-08-14T22:51:21.595Z,23.15
2022-08-14T22:53:53.094Z,23.22
2022-08-14T22:56:30.071Z,23.21
2022-08-14T22:59:01.710Z,23.20
2022-08-14T23:01:56.425Z,23.22
2022-08-14T23:04:35.477Z,23.22
2022-08-14T23:07:22.994Z,23.13
2022-08-14T23:09:57.477Z,23.13
2022-08-14T23:12:31.818Z,23.21
2022-08-14T23:15:03.998Z,23.15
2022-08-14T23:17:39.459Z,23.21
2022-08-14T23:20:18.905Z,23.22
2022-08-14T23:22:51.912Z,23.20
2022-08-14T23:25:56.649Z,23.19
2022-08-14T23:28:33.836Z,23.18
2022-08-14T23:31:12.060Z,23.18
2022-08-14T23:33:52.025Z,23.19
2022-08-14T23:36:31.604Z,23.13
2022-08-14T23:39:00.451Z,23.07
2022-08-14T23:41:46.444Z,23.06
2022-08-14T23:44:15.881Z,23.01
2022-08-14T23:46:44.193Z,22.98
2022-08-14T23:49:12.330Z,23.00
2022-08-14T23:51:40.161Z,23.05
2022-08-14T23:54:48.740Z,23.08
2022-08-14T23:57:02.719Z,23.12
2022-08-14T23:59:32.369Z,23.08
